Time;durP1;ratioP1;P1;durP2;ratioP2;P2;SDS_P1;SDS_P2;PMS_P1;PMS_P2;Temp;Humidity;BMP_temperature;BMP_pressure;BME280_temperature;BME280_humidity;BME280_pressure;Samples;Min_cycle;Max_cycle;Signal;HPM_P1;HPM_P2
2023/03/07 00:00:43;;;;;;;;;;;28.50;79.10;;;;;;5044665;28;19931;-63
2023/03/07 00:03:14;;;;;;;;;;;28.60;78.20;;;;;;5043999;28;20366;-63
2023/03/07 00:05:41;;;;;;;;;;;28.70;77.80;;;;;;5025365;28;20004;-64
2023/03/07 00:08:08;;;;;;;;;;;28.70;77.90;;;;;;5039258;28;19913;-68
2023/03/07 00:10:35;;;;;;;;;;;28.90;78.30;;;;;;5034494;28;19909;-66
2023/03/07 00:13:02;;;;;;;;;;;29.00;78.00;;;;;;5044120;28;19916;-68
2023/03/07 00:15:30;;;;;;;;;;;29.10;77.50;;;;;;5044172;28;20040;-65
2023/03/07 00:17:57;;;;;;;;;;;29.20;77.60;;;;;;5044574;28;19927;-63
2023/03/07 00:20:24;;;;;;;;;;;29.20;77.50;;;;;;5042765;28;20007;-64
2023/03/07 00:22:51;;;;;;;;;;;29.30;77.40;;;;;;5044401;28;19919;-64
2023/03/07 00:25:18;;;;;;;;;;;29.50;77.70;;;;;;5043702;28;19916;-63
2023/03/07 00:27:46;;;;;;;;;;;29.50;76.50;;;;;;5044764;28;19916;-64
2023/03/07 00:30:13;;;;;;;;;;;29.50;75.60;;;;;;5042740;28;20012;-65
2023/03/07 00:32:40;;;;;;;;;;;29.50;75.80;;;;;;5044123;28;19970;-67
2023/03/07 00:35:07;;;;;;;;;;;29.70;76.10;;;;;;5044553;28;19913;-64
2023/03/07 00:37:33;;;;;;;;;;;29.80;75.20;;;;;;5043965;28;19983;-64
2023/03/07 00:40:00;;;;;;;;;;;29.90;74.60;;;;;;5042699;28;19913;-63
2023/03/07 00:42:27;;;;;;;;;;;30.00;73.60;;;;;;5043819;28;19955;-64
2023/03/07 00:44:55;;;;;;;;;;;30.10;73.80;;;;;;5043956;28;19918;-65
2023/03/07 00:47:22;;;;;;;;;;;30.30;73.60;;;;;;5044459;28;20377;-63
2023/03/07 00:49:49;;;;;;;;;;;30.50;73.60;;;;;;5043721;28;19913;-65
2023/03/07 00:52:16;;;;;;;;;;;30.60;72.70;;;;;;5043899;28;19909;-63
2023/03/07 00:54:42;;;;;;;;;;;30.50;72.30;;;;;;5042673;28;19909;-63
2023/03/07 00:57:09;;;;;;;;;;;30.50;72.00;;;;;;5043554;28;19917;-65
2023/03/07 00:59:36;;;;;;;;;;;30.50;72.50;;;;;;5042564;28;19915;-68
2023/03/07 01:02:06;;;;;;;;;;;30.50;71.70;;;;;;5043440;28;19916;-66
2023/03/07 01:04:33;;;;;;;;;;;30.50;71.00;;;;;;5040346;28;19913;-67
2023/03/07 01:07:00;;;;;;;;;;;30.50;71.30;;;;;;5040658;28;20569;-64
2023/03/07 01:09:29;;;;;;;;;;;30.60;71.10;;;;;;5040234;28;19917;-65
2023/03/07 01:11:55;;;;;;;;;;;30.80;71.00;;;;;;5040409;28;19920;-65
2023/03/07 01:14:22;;;;;;;;;;;31.00;71.70;;;;;;5040401;28;19965;-65
2023/03/07 01:16:50;;;;;;;;;;;31.20;70.10;;;;;;5040732;28;20277;-62
2023/03/07 01:19:17;;;;;;;;;;;31.40;70.30;;;;;;5040267;28;19928;-68
2023/03/07 01:21:44;;;;;;;;;;;31.50;68.70;;;;;;5041099;28;19920;-67
2023/03/07 01:24:14;;;;;;;;;;;31.60;67.50;;;;;;5042676;28;19913;-68
2023/03/07 01:26:44;;;;;;;;;;;31.70;67.00;;;;;;5042833;28;19916;-64
2023/03/07 01:29:11;;;;;;;;;;;31.80;67.30;;;;;;5042140;28;19995;-67
2023/03/07 01:31:38;;;;;;;;;;;31.90;66.80;;;;;;5041991;28;20004;-66
2023/03/07 01:34:05;;;;;;;;;;;32.00;65.50;;;;;;5042562;28;20354;-65
2023/03/07 01:36:32;;;;;;;;;;;32.20;65.30;;;;;;5042367;28;19908;-65
2023/03/07 01:39:03;;;;;;;;;;;32.30;66.10;;;;;;5043539;28;19924;-63
2023/03/07 01:41:31;;;;;;;;;;;32.40;64.50;;;;;;5042461;28;20404;-64
2023/03/07 01:44:04;;;;;;;;;;;32.50;64.70;;;;;;5042030;28;19983;-65
2023/03/07 01:46:31;;;;;;;;;;;32.70;65.20;;;;;;5042831;28;19917;-64
2023/03/07 01:49:06;;;;;;;;;;;32.70;64.60;;;;;;5043892;28;19913;-66
2023/03/07 01:51:34;;;;;;;;;;;32.90;65.40;;;;;;5042282;28;19916;-68
2023/03/07 01:54:01;;;;;;;;;;;33.00;62.60;;;;;;5042834;28;19913;-67
2023/03/07 01:56:28;;;;;;;;;;;33.20;64.00;;;;;;5044329;28;19995;-64
2023/03/07 01:58:55;;;;;;;;;;;33.20;62.70;;;;;;5042445;28;20237;-69
2023/03/07 02:01:23;;;;;;;;;;;33.40;63.10;;;;;;5042915;28;19963;-66
2023/03/07 02:04:15;;;;;;;;;;;33.40;63.10;;;;;;5040131;28;19917;-64
2023/03/07 02:06:42;;;;;;;;;;;33.60;63.60;;;;;;5041694;28;19909;-67
2023/03/07 02:09:14;;;;;;;;;;;34.00;63.90;;;;;;5042603;28;20362;-73
2023/03/07 02:11:42;;;;;;;;;;;34.10;62.10;;;;;;5041281;28;20266;-71
2023/03/07 02:14:09;;;;;;;;;;;34.30;62.80;;;;;;5042127;28;20316;-64
2023/03/07 02:16:37;;;;;;;;;;;34.50;61.70;;;;;;5042784;28;19913;-64
2023/03/07 02:19:08;;;;;;;;;;;34.60;63.10;;;;;;5042958;28;20332;-64
2023/03/07 02:21:56;;;;;;;;;;;34.80;62.10;;;;;;5039272;28;19916;-64
2023/03/07 02:24:30;;;;;;;;;;;35.00;61.90;;;;;;5041844;28;19944;-64
2023/03/07 02:26:57;;;;;;;;;;;35.10;61.10;;;;;;5041222;28;19919;-69
2023/03/07 02:29:23;;;;;;;;;;;35.40;66.10;;;;;;5042860;28;19963;-66
2023/03/07 02:31:50;;;;;;;;;;;35.50;59.40;;;;;;5039865;28;19913;-67
2023/03/07 02:34:24;;;;;;;;;;;35.70;61.50;;;;;;5042226;28;19920;-68
2023/03/07 02:36:54;;;;;;;;;;;35.90;59.60;;;;;;5041449;28;19913;-70
2023/03/07 02:39:23;;;;;;;;;;;36.00;58.80;;;;;;5042615;28;20365;-67
2023/03/07 02:41:52;;;;;;;;;;;35.90;57.30;;;;;;5041095;28;19966;-66
2023/03/07 02:44:18;;;;;;;;;;;35.90;55.80;;;;;;5037445;28;20427;-67
2023/03/07 02:46:45;;;;;;;;;;;35.70;55.70;;;;;;5041868;28;20377;-64
2023/03/07 02:49:12;;;;;;;;;;;35.70;56.00;;;;;;5043505;28;19962;-66
2023/03/07 02:51:39;;;;;;;;;;;35.80;54.50;;;;;;5030573;28;19939;-68
2023/03/07 02:54:07;;;;;;;;;;;36.00;54.90;;;;;;5067525;28;20148;-64
2023/03/07 02:56:34;;;;;;;;;;;36.20;53.90;;;;;;5042105;28;20057;-66
2023/03/07 02:59:01;;;;;;;;;;;36.40;54.00;;;;;;5040531;28;20362;-65
2023/03/07 03:01:30;;;;;;;;;;;36.70;52.60;;;;;;5041450;28;20365;-68
2023/03/07 03:03:59;;;;;;;;;;;37.30;53.20;;;;;;5040667;28;19909;-71
2023/03/07 03:06:26;;;;;;;;;;;37.80;51.60;;;;;;5046884;28;19966;-72
2023/03/07 03:08:54;;;;;;;;;;;38.20;50.80;;;;;;5029412;28;19912;-63
2023/03/07 03:11:21;;;;;;;;;;;38.60;50.50;;;;;;5041028;28;20021;-67
2023/03/07 03:13:49;;;;;;;;;;;39.40;50.20;;;;;;5040644;28;19913;-67
2023/03/07 03:16:17;;;;;;;;;;;40.10;49.30;;;;;;5042348;28;19920;-69
2023/03/07 03:18:46;;;;;;;;;;;41.10;48.50;;;;;;5039868;28;19927;-68
2023/03/07 03:21:15;;;;;;;;;;;41.30;48.30;;;;;;5041183;28;19909;-66
2023/03/07 03:23:41;;;;;;;;;;;42.10;47.50;;;;;;5056522;28;20013;-69
2023/03/07 03:26:10;;;;;;;;;;;43.10;47.50;;;;;;5040909;28;20277;-68
2023/03/07 03:28:37;;;;;;;;;;;43.80;46.20;;;;;;5041297;28;20324;-68
2023/03/07 03:31:05;;;;;;;;;;;43.70;46.00;;;;;;5038190;28;19913;-71
2023/03/07 03:33:32;;;;;;;;;;;44.10;45.20;;;;;;5042135;28;19909;-68
2023/03/07 03:36:00;;;;;;;;;;;44.30;45.00;;;;;;5041312;28;19982;-65
2023/03/07 03:38:27;;;;;;;;;;;44.60;44.10;;;;;;5042258;28;20389;-69
2023/03/07 03:40:54;;;;;;;;;;;44.80;44.10;;;;;;5039541;28;19913;-67
2023/03/07 03:43:20;;;;;;;;;;;45.40;44.50;;;;;;5042762;28;19909;-72
2023/03/07 03:45:57;;;;;;;;;;;45.70;44.00;;;;;;5045433;28;19916;-70
2023/03/07 03:48:24;;;;;;;;;;;46.50;43.80;;;;;;5045314;28;19920;-71
2023/03/07 03:50:50;;;;;;;;;;;47.20;43.30;;;;;;5044152;28;19917;-69
2023/03/07 03:53:17;;;;;;;;;;;47.60;43.10;;;;;;5044827;28;19919;-70
2023/03/07 03:55:44;;;;;;;;;;;47.80;42.30;;;;;;5045284;28;19920;-70
2023/03/07 03:58:11;;;;;;;;;;;48.10;42.50;;;;;;5042232;28;19913;-72
2023/03/07 04:00:38;;;;;;;;;;;48.00;47.40;;;;;;5042681;28;19917;-67
2023/03/07 04:03:05;;;;;;;;;;;47.90;48.80;;;;;;5039159;28;19909;-65
2023/03/07 04:05:33;;;;;;;;;;;46.70;48.80;;;;;;5040684;28;20457;-73
2023/03/07 04:08:00;;;;;;;;;;;45.30;49.60;;;;;;5041590;28;19913;-71
2023/03/07 04:10:27;;;;;;;;;;;45.10;50.50;;;;;;5043041;28;19948;-72
2023/03/07 04:12:54;;;;;;;;;;;45.80;50.10;;;;;;5044168;28;19935;-68
2023/03/07 04:15:21;;;;;;;;;;;45.40;49.60;;;;;;5043449;28;19913;-77
2023/03/07 04:17:48;;;;;;;;;;;45.30;49.20;;;;;;5044006;28;19928;-74
2023/03/07 04:20:16;;;;;;;;;;;44.40;50.30;;;;;;5041423;28;19956;-73
2023/03/07 04:22:43;;;;;;;;;;;44.00;51.20;;;;;;5044524;28;19909;-67
2023/03/07 04:25:11;;;;;;;;;;;45.10;49.60;;;;;;5042558;28;20354;-65
2023/03/07 04:27:37;;;;;;;;;;;45.50;50.60;;;;;;5044067;28;19909;-68
2023/03/07 04:30:04;;;;;;;;;;;45.00;51.20;;;;;;5041128;28;19924;-65
2023/03/07 04:32:31;;;;;;;;;;;45.60;48.90;;;;;;5043478;28;19983;-72
2023/03/07 04:34:58;;;;;;;;;;;44.50;49.90;;;;;;5042318;28;19913;-66
2023/03/07 04:37:25;;;;;;;;;;;44.50;51.20;;;;;;5041315;28;19982;-65
2023/03/07 04:39:51;;;;;;;;;;;44.70;50.90;;;;;;5042978;28;19923;-71
2023/03/07 04:42:18;;;;;;;;;;;45.50;51.00;;;;;;5041000;28;19971;-67
2023/03/07 04:44:45;;;;;;;;;;;45.30;51.00;;;;;;5041470;28;20129;-64
2023/03/07 04:47:12;;;;;;;;;;;46.00;50.40;;;;;;5041136;28;19912;-65
2023/03/07 04:49:38;;;;;;;;;;;45.30;50.20;;;;;;5041875;28;19917;-65
2023/03/07 04:52:05;;;;;;;;;;;44.00;51.80;;;;;;5040135;28;19913;-66
2023/03/07 04:54:32;;;;;;;;;;;43.40;52.50;;;;;;5040093;28;19912;-65
2023/03/07 04:56:59;;;;;;;;;;;43.20;51.10;;;;;;5041100;28;20130;-64
2023/03/07 04:59:25;;;;;;;;;;;42.40;50.40;;;;;;5038329;28;19921;-69
2023/03/07 05:01:52;;;;;;;;;;;40.10;52.50;;;;;;5056487;28;20020;-66
2023/03/07 05:04:19;;;;;;;;;;;40.40;52.90;;;;;;5040855;28;20770;-71
2023/03/07 05:06:45;;;;;;;;;;;39.80;53.10;;;;;;5042146;28;19913;-67
2023/03/07 05:09:12;;;;;;;;;;;39.80;54.20;;;;;;5040589;28;19912;-61
2023/03/07 05:11:39;;;;;;;;;;;40.00;53.20;;;;;;5041074;28;19929;-65
2023/03/07 05:14:06;;;;;;;;;;;41.20;53.80;;;;;;5038104;28;19983;-67
2023/03/07 05:16:33;;;;;;;;;;;41.40;51.20;;;;;;5040891;28;19913;-68
2023/03/07 05:18:59;;;;;;;;;;;41.60;50.70;;;;;;5040484;28;19983;-64
2023/03/07 05:21:26;;;;;;;;;;;41.30;51.50;;;;;;5038530;28;19923;-65
2023/03/07 05:23:53;;;;;;;;;;;41.50;52.30;;;;;;5033070;28;19913;-71
2023/03/07 05:26:19;;;;;;;;;;;42.40;52.00;;;;;;5022433;28;19917;-67
2023/03/07 05:28:46;;;;;;;;;;;43.80;51.70;;;;;;5032191;28;20164;-74
2023/03/07 05:31:13;;;;;;;;;;;44.00;51.00;;;;;;5037779;28;20398;-73
2023/03/07 05:33:41;;;;;;;;;;;43.70;50.10;;;;;;5036830;28;20027;-65
2023/03/07 05:36:08;;;;;;;;;;;43.50;49.90;;;;;;5025242;28;19967;-72
2023/03/07 05:38:35;;;;;;;;;;;42.70;50.80;;;;;;5030922;28;19925;-70
2023/03/07 05:41:02;;;;;;;;;;;42.60;51.70;;;;;;5038302;28;19919;-72
2023/03/07 05:43:29;;;;;;;;;;;43.70;51.50;;;;;;5048088;28;19912;-75
2023/03/07 05:45:55;;;;;;;;;;;43.10;51.20;;;;;;5027512;28;19909;-63
2023/03/07 05:48:22;;;;;;;;;;;42.40;51.90;;;;;;5037036;28;20448;-70
2023/03/07 05:50:50;;;;;;;;;;;41.30;53.00;;;;;;5038979;28;20003;-64
2023/03/07 05:53:16;;;;;;;;;;;41.50;54.00;;;;;;5038483;28;19916;-69
2023/03/07 05:55:43;;;;;;;;;;;42.50;53.10;;;;;;5033075;28;19912;-68
2023/03/07 05:58:11;;;;;;;;;;;43.20;51.70;;;;;;5031084;28;19924;-69
2023/03/07 06:00:37;;;;;;;;;;;41.90;53.00;;;;;;5029991;28;20370;-66
2023/03/07 06:03:04;;;;;;;;;;;41.90;54.40;;;;;;5042266;28;20604;-72
2023/03/07 06:05:31;;;;;;;;;;;41.10;53.80;;;;;;5028977;28;19917;-64
2023/03/07 06:07:58;;;;;;;;;;;41.20;54.50;;;;;;5036033;28;19999;-69
2023/03/07 06:10:25;;;;;;;;;;;42.20;54.10;;;;;;5036713;28;19913;-71
2023/03/07 06:12:53;;;;;;;;;;;42.40;53.70;;;;;;5040649;28;20433;-72
2023/03/07 06:15:20;;;;;;;;;;;42.10;53.50;;;;;;5038426;28;19977;-72
2023/03/07 06:17:47;;;;;;;;;;;42.40;53.80;;;;;;5034380;28;19924;-74
2023/03/07 06:20:15;;;;;;;;;;;41.80;54.30;;;;;;5036980;28;19974;-65
2023/03/07 06:22:41;;;;;;;;;;;41.60;54.20;;;;;;5035353;28;19962;-78
2023/03/07 06:25:08;;;;;;;;;;;41.20;53.80;;;;;;5034723;28;19914;-80
2023/03/07 06:27:35;;;;;;;;;;;40.80;53.00;;;;;;5024148;28;20009;-72
2023/03/07 06:30:04;;;;;;;;;;;40.40;53.80;;;;;;5036481;28;19939;-65
2023/03/07 06:32:31;;;;;;;;;;;40.80;53.30;;;;;;5036025;28;20373;-66
2023/03/07 06:34:58;;;;;;;;;;;40.60;53.30;;;;;;5036675;28;19913;-64
2023/03/07 06:37:25;;;;;;;;;;;40.20;54.50;;;;;;5023114;28;19971;-71
2023/03/07 06:39:52;;;;;;;;;;;40.80;53.80;;;;;;5036202;28;19917;-68
2023/03/07 06:42:19;;;;;;;;;;;41.50;53.20;;;;;;5039628;28;19956;-63
2023/03/07 06:44:46;;;;;;;;;;;41.70;53.40;;;;;;5034231;28;19913;-66
2023/03/07 06:47:12;;;;;;;;;;;41.40;53.20;;;;;;5022213;28;19993;-63
2023/03/07 06:49:39;;;;;;;;;;;41.10;54.90;;;;;;5031212;28;19913;-65
2023/03/07 06:52:06;;;;;;;;;;;40.10;55.50;;;;;;5031491;28;20329;-66
2023/03/07 06:54:32;;;;;;;;;;;39.20;56.40;;;;;;5040676;28;19913;-65
2023/03/07 06:56:59;;;;;;;;;;;39.40;56.80;;;;;;5021815;28;19913;-67
2023/03/07 06:59:26;;;;;;;;;;;39.80;56.50;;;;;;5036963;28;19949;-68
2023/03/07 07:01:52;;;;;;;;;;;40.30;56.40;;;;;;5031272;28;20366;-63
2023/03/07 07:04:19;;;;;;;;;;;40.30;56.70;;;;;;5036085;28;19974;-67
2023/03/07 07:06:46;;;;;;;;;;;39.90;57.10;;;;;;5023828;28;20560;-68
2023/03/07 07:09:13;;;;;;;;;;;39.20;58.70;;;;;;5033842;28;20336;-66
2023/03/07 07:11:39;;;;;;;;;;;39.70;58.70;;;;;;5021307;28;19996;-68
2023/03/07 07:14:06;;;;;;;;;;;39.10;60.20;;;;;;5038363;28;20327;-64
2023/03/07 07:16:35;;;;;;;;;;;38.50;61.40;;;;;;5025000;28;19917;-71
2023/03/07 07:19:01;;;;;;;;;;;38.40;62.00;;;;;;5036877;28;19921;-64
2023/03/07 07:21:28;;;;;;;;;;;38.70;61.10;;;;;;5025849;28;19963;-68
2023/03/07 07:23:58;;;;;;;;;;;37.60;63.40;;;;;;5043907;28;19956;-68
2023/03/07 07:26:25;;;;;;;;;;;37.40;63.80;;;;;;5031845;28;19905;-68
2023/03/07 07:28:52;;;;;;;;;;;36.80;65.30;;;;;;5040472;28;19913;-68
2023/03/07 07:31:19;;;;;;;;;;;36.40;66.30;;;;;;5026007;28;19916;-69
2023/03/07 07:33:46;;;;;;;;;;;35.80;67.50;;;;;;5031140;28;19917;-66
2023/03/07 07:36:13;;;;;;;;;;;35.00;69.20;;;;;;5041161;28;19913;-65
2023/03/07 07:38:40;;;;;;;;;;;33.80;72.40;;;;;;5041322;28;20289;-66
2023/03/07 07:41:07;;;;;;;;;;;33.00;74.60;;;;;;5039467;28;19917;-62
2023/03/07 07:43:34;;;;;;;;;;;32.00;77.30;;;;;;5028929;28;19920;-65
2023/03/07 07:46:02;;;;;;;;;;;31.00;80.50;;;;;;5034533;28;19916;-66
2023/03/07 07:48:30;;;;;;;;;;;30.60;81.90;;;;;;5035180;28;19916;-66
2023/03/07 07:50:59;;;;;;;;;;;30.10;84.00;;;;;;5030087;28;19921;-68
2023/03/07 07:53:26;;;;;;;;;;;29.80;85.90;;;;;;5041321;28;19921;-64
2023/03/07 07:55:54;;;;;;;;;;;29.60;87.20;;;;;;5035879;28;19923;-65
2023/03/07 07:58:21;;;;;;;;;;;29.50;88.80;;;;;;5034248;28;19998;-65
2023/03/07 08:00:48;;;;;;;;;;;29.30;90.20;;;;;;5030353;28;19917;-66
2023/03/07 08:03:15;;;;;;;;;;;29.20;90.60;;;;;;5026944;28;19913;-68
2023/03/07 08:05:47;;;;;;;;;;;29.10;91.40;;;;;;5038471;28;19909;-64
2023/03/07 08:08:15;;;;;;;;;;;29.10;91.70;;;;;;5032866;28;20287;-64
2023/03/07 08:10:43;;;;;;;;;;;28.90;92.30;;;;;;5030497;28;19956;-64
2023/03/07 08:13:14;;;;;;;;;;;28.80;93.10;;;;;;5028916;28;19913;-68
2023/03/07 08:15:41;;;;;;;;;;;28.80;93.70;;;;;;5039220;28;19913;-62
2023/03/07 08:18:09;;;;;;;;;;;28.80;94.30;;;;;;5031804;28;19923;-65
2023/03/07 08:20:36;;;;;;;;;;;28.70;94.60;;;;;;5031077;28;19917;-64
2023/03/07 08:23:03;;;;;;;;;;;28.60;95.60;;;;;;5024370;28;20259;-64
2023/03/07 08:25:31;;;;;;;;;;;28.50;96.40;;;;;;5041824;28;20434;-67
2023/03/07 08:27:57;;;;;;;;;;;28.40;97.10;;;;;;5023633;28;20290;-66
2023/03/07 08:30:26;;;;;;;;;;;28.30;97.90;;;;;;5031670;28;19914;-66
2023/03/07 08:32:53;;;;;;;;;;;28.20;98.60;;;;;;5023767;28;19916;-65
2023/03/07 08:35:20;;;;;;;;;;;28.10;99.10;;;;;;5042192;28;20000;-66
2023/03/07 08:37:48;;;;;;;;;;;27.80;99.90;;;;;;5040386;28;19921;-66
2023/03/07 08:40:15;;;;;;;;;;;27.70;99.90;;;;;;5035885;28;19972;-69
2023/03/07 08:42:42;;;;;;;;;;;27.80;99.90;;;;;;5032105;28;19916;-67
2023/03/07 08:45:09;;;;;;;;;;;27.80;99.90;;;;;;5043281;28;19912;-70
2023/03/07 08:47:36;;;;;;;;;;;27.70;99.90;;;;;;5024870;28;19908;-69
2023/03/07 08:50:03;;;;;;;;;;;27.50;99.90;;;;;;5031694;28;19963;-68
2023/03/07 08:52:30;;;;;;;;;;;27.50;99.90;;;;;;5026737;28;19917;-67
2023/03/07 08:54:57;;;;;;;;;;;27.50;99.90;;;;;;5042054;28;19920;-66
2023/03/07 08:57:24;;;;;;;;;;;27.50;99.90;;;;;;5028727;28;19909;-66
2023/03/07 08:59:51;;;;;;;;;;;27.50;99.90;;;;;;5031478;28;19996;-63
2023/03/07 09:02:17;;;;;;;;;;;27.60;99.90;;;;;;5039185;28;19917;-63
2023/03/07 09:04:44;;;;;;;;;;;27.60;99.90;;;;;;5034359;28;19913;-66
2023/03/07 09:07:11;;;;;;;;;;;27.50;99.90;;;;;;5021675;28;19909;-64
2023/03/07 09:09:38;;;;;;;;;;;27.50;99.90;;;;;;5033190;28;20429;-65
2023/03/07 09:12:04;;;;;;;;;;;27.40;99.90;;;;;;5031738;28;20476;-64
2023/03/07 09:14:31;;;;;;;;;;;27.20;99.90;;;;;;5037641;28;19917;-64
2023/03/07 09:16:58;;;;;;;;;;;27.10;99.90;;;;;;5022469;28;20051;-65
2023/03/07 09:19:24;;;;;;;;;;;27.10;99.90;;;;;;5034728;28;19924;-65
2023/03/07 09:21:51;;;;;;;;;;;27.10;99.90;;;;;;5040976;28;20729;-62
2023/03/07 09:24:18;;;;;;;;;;;27.00;99.90;;;;;;5038438;28;19917;-69
2023/03/07 09:26:44;;;;;;;;;;;27.00;99.90;;;;;;5025563;28;19920;-70
2023/03/07 09:29:11;;;;;;;;;;;27.10;99.90;;;;;;5034104;28;19913;-67
2023/03/07 09:31:40;;;;;;;;;;;27.10;99.90;;;;;;5023515;28;20012;-63
2023/03/07 09:34:06;;;;;;;;;;;27.10;99.90;;;;;;5040936;28;19913;-63
2023/03/07 09:36:33;;;;;;;;;;;27.00;99.90;;;;;;5043487;28;19971;-65
2023/03/07 09:39:00;;;;;;;;;;;26.90;99.90;;;;;;5042957;28;19921;-66
2023/03/07 09:41:40;;;;;;;;;;;26.90;99.90;;;;;;5042429;28;19912;-68
2023/03/07 09:44:10;;;;;;;;;;;26.90;99.90;;;;;;5039808;28;19920;-66
2023/03/07 09:46:54;;;;;;;;;;;26.90;99.90;;;;;;5040237;28;20379;-67
2023/03/07 09:49:33;;;;;;;;;;;26.90;99.90;;;;;;5042316;28;20465;-67
2023/03/07 09:52:01;;;;;;;;;;;26.90;99.90;;;;;;5042417;28;19921;-70
2023/03/07 09:54:40;;;;;;;;;;;26.90;99.90;;;;;;5042589;28;20357;-64
2023/03/07 09:57:13;;;;;;;;;;;26.90;99.90;;;;;;5042199;28;19992;-66
2023/03/07 09:59:45;;;;;;;;;;;26.90;99.90;;;;;;5042267;28;20433;-73
2023/03/07 10:02:17;;;;;;;;;;;27.00;99.90;;;;;;5041140;28;19913;-66
2023/03/07 10:04:55;;;;;;;;;;;26.90;99.90;;;;;;5043227;28;20533;-70
2023/03/07 10:07:30;;;;;;;;;;;26.90;99.90;;;;;;5042425;28;19913;-67
2023/03/07 10:10:00;;;;;;;;;;;26.90;99.90;;;;;;5042418;28;19909;-66
2023/03/07 10:12:44;;;;;;;;;;;26.80;99.90;;;;;;5046714;27;19920;-65
2023/03/07 10:15:11;;;;;;;;;;;26.80;99.90;;;;;;5041450;28;20361;-67
2023/03/07 10:17:58;;;;;;;;;;;26.70;99.90;;;;;;5042856;28;20275;-65
2023/03/07 10:20:31;;;;;;;;;;;26.70;99.90;;;;;;5042785;28;19944;-66
2023/03/07 10:23:00;;;;;;;;;;;26.60;99.90;;;;;;5042203;28;19913;-66
2023/03/07 10:25:45;;;;;;;;;;;26.60;99.90;;;;;;5041956;28;20279;-65
2023/03/07 10:28:25;;;;;;;;;;;26.60;99.90;;;;;;5041204;28;19909;-67
2023/03/07 10:30:57;;;;;;;;;;;26.50;99.90;;;;;;5037595;28;19963;-67
2023/03/07 10:33:24;;;;;;;;;;;26.50;99.90;;;;;;5041836;28;20423;-71
2023/03/07 10:36:00;;;;;;;;;;;26.40;99.90;;;;;;5042880;28;20106;-71
2023/03/07 10:38:27;;;;;;;;;;;26.40;99.90;;;;;;5041123;28;20071;-72
2023/03/07 10:40:54;;;;;;;;;;;26.40;99.90;;;;;;5043216;28;20400;-68
2023/03/07 10:43:28;;;;;;;;;;;26.50;99.90;;;;;;5042085;28;19909;-72
2023/03/07 10:46:00;;;;;;;;;;;26.40;99.90;;;;;;5043103;28;19909;-66
2023/03/07 10:48:27;;;;;;;;;;;26.30;99.90;;;;;;5042076;28;19932;-65
2023/03/07 10:51:10;;;;;;;;;;;26.20;99.90;;;;;;5042978;28;20369;-66
2023/03/07 10:53:37;;;;;;;;;;;26.20;99.90;;;;;;5046860;28;19937;-65
2023/03/07 10:56:12;;;;;;;;;;;26.10;99.90;;;;;;5047344;28;19999;-72
2023/03/07 10:58:40;;;;;;;;;;;26.10;99.90;;;;;;5047286;28;19928;-72
2023/03/07 11:01:07;;;;;;;;;;;26.00;99.90;;;;;;5048313;28;19944;-66
2023/03/07 11:03:33;;;;;;;;;;;25.90;99.90;;;;;;5046463;28;19913;-66
2023/03/07 11:06:00;;;;;;;;;;;25.90;99.90;;;;;;5049569;28;19976;-65
2023/03/07 11:08:27;;;;;;;;;;;25.90;99.90;;;;;;5048971;28;19973;-66
2023/03/07 11:10:54;;;;;;;;;;;25.80;99.90;;;;;;5046719;28;19909;-65
2023/03/07 11:13:21;;;;;;;;;;;25.80;99.90;;;;;;5046887;28;20335;-66
2023/03/07 11:15:48;;;;;;;;;;;25.80;99.90;;;;;;5048103;28;19979;-66
2023/03/07 11:18:37;;;;;;;;;;;25.80;99.90;;;;;;5037413;28;20388;-65
2023/03/07 11:21:04;;;;;;;;;;;25.70;99.90;;;;;;5050760;28;19997;-65
2023/03/07 11:23:31;;;;;;;;;;;25.70;99.90;;;;;;5036049;28;19909;-66
2023/03/07 11:26:14;;;;;;;;;;;25.60;99.90;;;;;;5045206;28;20027;-64
2023/03/07 11:28:40;;;;;;;;;;;25.60;99.90;;;;;;5047658;28;20362;-65
2023/03/07 11:31:10;;;;;;;;;;;25.50;99.90;;;;;;5045499;28;19912;-69
2023/03/07 11:33:37;;;;;;;;;;;25.40;99.90;;;;;;5047286;28;20364;-65
2023/03/07 11:36:26;;;;;;;;;;;25.40;99.90;;;;;;5048421;28;20281;-64
2023/03/07 11:39:05;;;;;;;;;;;25.30;99.90;;;;;;5042622;28;20396;-64
2023/03/07 11:41:40;;;;;;;;;;;25.20;99.90;;;;;;5028471;28;20278;-66
2023/03/07 11:44:24;;;;;;;;;;;25.20;99.90;;;;;;5034038;28;20258;-65
2023/03/07 11:47:09;;;;;;;;;;;25.20;99.90;;;;;;5048197;28;20388;-65
2023/03/07 11:49:48;;;;;;;;;;;25.20;99.90;;;;;;5048663;28;19956;-65
2023/03/07 11:52:30;;;;;;;;;;;25.10;99.90;;;;;;5048147;28;20008;-67
2023/03/07 11:54:59;;;;;;;;;;;25.10;99.90;;;;;;5048071;28;20017;-64
2023/03/07 11:57:26;;;;;;;;;;;25.10;99.90;;;;;;5047931;28;19912;-64
2023/03/07 11:59:55;;;;;;;;;;;25.00;99.90;;;;;;5047954;28;19938;-65
2023/03/07 12:02:48;;;;;;;;;;;25.00;99.90;;;;;;5047916;28;19997;-64
2023/03/07 12:05:34;;;;;;;;;;;24.90;99.90;;;;;;5043189;28;19947;-65
2023/03/07 12:08:13;;;;;;;;;;;24.90;99.90;;;;;;5044461;28;19912;-65
2023/03/07 12:10:49;;;;;;;;;;;24.90;99.90;;;;;;5044791;28;19913;-66
2023/03/07 12:13:18;;;;;;;;;;;24.90;99.90;;;;;;5044410;28;19909;-64
2023/03/07 12:16:04;;;;;;;;;;;24.80;99.90;;;;;;5044995;28;19913;-65
2023/03/07 12:18:39;;;;;;;;;;;24.80;99.90;;;;;;5044186;28;19931;-67
2023/03/07 12:21:24;;;;;;;;;;;24.70;99.90;;;;;;5044881;28;19967;-65
2023/03/07 12:24:01;;;;;;;;;;;24.70;99.90;;;;;;5044205;28;19921;-64
2023/03/07 12:26:32;;;;;;;;;;;24.70;99.90;;;;;;5044436;28;19963;-65
2023/03/07 12:29:19;;;;;;;;;;;24.60;99.90;;;;;;5044625;28;20011;-66
2023/03/07 12:31:47;;;;;;;;;;;24.60;99.90;;;;;;5044202;28;19995;-65
2023/03/07 12:34:20;;;;;;;;;;;24.60;99.90;;;;;;5044882;28;19913;-66
2023/03/07 12:36:53;;;;;;;;;;;24.50;99.90;;;;;;5044735;28;19967;-65
2023/03/07 12:39:25;;;;;;;;;;;24.50;99.90;;;;;;5043724;28;19920;-67
2023/03/07 12:41:52;;;;;;;;;;;24.50;99.90;;;;;;5044029;28;20354;-65
2023/03/07 12:44:29;;;;;;;;;;;24.50;99.90;;;;;;5044486;28;20411;-68
2023/03/07 12:47:21;;;;;;;;;;;24.50;99.90;;;;;;5043815;28;19917;-63
2023/03/07 12:49:48;;;;;;;;;;;24.40;99.90;;;;;;5044355;28;19948;-65
2023/03/07 12:52:29;;;;;;;;;;;24.40;99.90;;;;;;5044807;28;19916;-64
2023/03/07 12:55:08;;;;;;;;;;;24.40;99.90;;;;;;5043088;28;19913;-65
2023/03/07 12:57:39;;;;;;;;;;;24.30;99.90;;;;;;5043761;28;19913;-65
2023/03/07 13:00:07;;;;;;;;;;;24.30;99.90;;;;;;5043271;28;20001;-65
2023/03/07 13:02:41;;;;;;;;;;;24.20;99.90;;;;;;5044041;28;19909;-65
2023/03/07 13:05:16;;;;;;;;;;;24.20;99.90;;;;;;5043811;28;19917;-70
2023/03/07 13:07:43;;;;;;;;;;;24.20;99.90;;;;;;5043309;28;19964;-64
2023/03/07 13:10:14;;;;;;;;;;;24.10;99.90;;;;;;5043188;28;19913;-65
2023/03/07 13:12:40;;;;;;;;;;;24.10;99.90;;;;;;5043424;28;19909;-66
2023/03/07 13:15:07;;;;;;;;;;;24.10;99.90;;;;;;5043673;28;19912;-65
2023/03/07 13:17:34;;;;;;;;;;;24.00;99.90;;;;;;5044254;28;19955;-66
2023/03/07 13:20:24;;;;;;;;;;;24.00;99.90;;;;;;5043997;28;19913;-65
2023/03/07 13:22:52;;;;;;;;;;;24.00;99.90;;;;;;5043483;28;20384;-65
2023/03/07 13:25:24;;;;;;;;;;;23.90;99.90;;;;;;5043811;28;19920;-66
2023/03/07 13:28:01;;;;;;;;;;;23.90;99.90;;;;;;5043622;28;19908;-66
2023/03/07 13:30:31;;;;;;;;;;;23.90;99.90;;;;;;5043654;28;19909;-66
2023/03/07 13:33:23;;;;;;;;;;;23.80;99.90;;;;;;5042947;28;20366;-66
2023/03/07 13:35:54;;;;;;;;;;;23.70;99.90;;;;;;5075906;28;19913;-66
2023/03/07 13:38:24;;;;;;;;;;;23.70;99.90;;;;;;5043575;28;20292;-67
2023/03/07 13:40:55;;;;;;;;;;;23.80;99.90;;;;;;5043766;28;19909;-71
2023/03/07 13:43:24;;;;;;;;;;;23.70;99.90;;;;;;5043644;28;19947;-65
2023/03/07 13:45:55;;;;;;;;;;;23.70;99.90;;;;;;5043141;28;19916;-67
2023/03/07 13:48:24;;;;;;;;;;;23.60;99.90;;;;;;5043138;28;19984;-66
2023/03/07 13:50:51;;;;;;;;;;;23.60;99.90;;;;;;5043742;28;19916;-64
2023/03/07 13:53:30;;;;;;;;;;;23.60;99.90;;;;;;5042944;28;19912;-65
2023/03/07 13:56:03;;;;;;;;;;;23.60;99.90;;;;;;5043251;28;19912;-66
2023/03/07 13:58:32;;;;;;;;;;;23.50;99.90;;;;;;5042695;28;19921;-65
2023/03/07 14:01:17;;;;;;;;;;;23.50;99.90;;;;;;5043556;28;19909;-68
2023/03/07 14:03:46;;;;;;;;;;;23.40;99.90;;;;;;5042446;28;19912;-64
2023/03/07 14:06:27;;;;;;;;;;;23.30;99.90;;;;;;5042995;28;19909;-64
2023/03/07 14:08:54;;;;;;;;;;;23.30;99.90;;;;;;5043089;28;19963;-68
2023/03/07 14:11:26;;;;;;;;;;;23.20;99.90;;;;;;5042579;28;19913;-66
2023/03/07 14:13:53;;;;;;;;;;;23.20;99.90;;;;;;5042515;28;19913;-64
2023/03/07 14:16:20;;;;;;;;;;;23.10;99.90;;;;;;5042494;28;19959;-64
2023/03/07 14:18:58;;;;;;;;;;;23.00;99.90;;;;;;5042143;28;19917;-65
2023/03/07 14:21:32;;;;;;;;;;;23.10;99.90;;;;;;5042314;28;19916;-65
2023/03/07 14:23:59;;;;;;;;;;;23.00;99.90;;;;;;5042662;28;19916;-65
2023/03/07 14:26:26;;;;;;;;;;;23.00;99.90;;;;;;5042080;28;20289;-67
2023/03/07 14:29:02;;;;;;;;;;;22.90;99.90;;;;;;5042114;28;20382;-64